sensor_id;sensor_type;location;lat;lon;timestamp;P1;durP1;ratioP1;P2;durP2;ratioP2
31990;SDS011;18508;49.386;8.370;2023-09-18T00:01:29;8.30;;;4.00;;
31990;SDS011;18508;49.386;8.370;2023-09-18T00:03:57;6.93;;;4.22;;
31990;SDS011;18508;49.386;8.370;2023-09-18T00:06:26;8.88;;;4.18;;
31990;SDS011;18508;49.386;8.370;2023-09-18T00:08:56;5.82;;;3.95;;
31990;SDS011;18508;49.386;8.370;2023-09-18T00:11:25;8.00;;;3.90;;
31990;SDS011;18508;49.386;8.370;2023-09-18T00:13:54;9.43;;;4.30;;
31990;SDS011;18508;49.386;8.370;2023-09-18T00:16:23;9.20;;;4.38;;
31990;SDS011;18508;49.386;8.370;2023-09-18T00:18:53;5.63;;;3.80;;
31990;SDS011;18508;49.386;8.370;2023-09-18T00:21:22;8.57;;;3.92;;
31990;SDS011;18508;49.386;8.370;2023-09-18T00:23:51;6.78;;;4.07;;
31990;SDS011;18508;49.386;8.370;2023-09-18T00:26:20;6.32;;;4.10;;
31990;SDS011;18508;49.386;8.370;2023-09-18T00:28:50;8.65;;;4.65;;
31990;SDS011;18508;49.386;8.370;2023-09-18T00:31:19;5.93;;;3.83;;
31990;SDS011;18508;49.386;8.370;2023-09-18T00:33:48;6.55;;;4.00;;
31990;SDS011;18508;49.386;8.370;2023-09-18T00:36:16;9.25;;;4.88;;
31990;SDS011;18508;49.386;8.370;2023-09-18T00:38:44;7.38;;;4.10;;
31990;SDS011;18508;49.386;8.370;2023-09-18T00:41:13;9.25;;;4.60;;
31990;SDS011;18508;49.386;8.370;2023-09-18T00:43:42;10.57;;;4.72;;
31990;SDS011;18508;49.386;8.370;2023-09-18T00:46:12;6.30;;;3.97;;
31990;SDS011;18508;49.386;8.370;2023-09-18T00:48:40;9.02;;;4.32;;
31990;SDS011;18508;49.386;8.370;2023-09-18T00:51:10;6.50;;;4.25;;
31990;SDS011;18508;49.386;8.370;2023-09-18T00:53:41;5.90;;;4.32;;
31990;SDS011;18508;49.386;8.370;2023-09-18T00:56:11;11.02;;;3.90;;
31990;SDS011;18508;49.386;8.370;2023-09-18T00:58:40;6.30;;;4.22;;
31990;SDS011;18508;49.386;8.370;2023-09-18T01:01:08;6.93;;;4.18;;
31990;SDS011;18508;49.386;8.370;2023-09-18T01:03:44;6.72;;;4.10;;
31990;SDS011;18508;49.386;8.370;2023-09-18T01:06:14;7.00;;;4.05;;
31990;SDS011;18508;49.386;8.370;2023-09-18T01:08:43;6.40;;;3.88;;
31990;SDS011;18508;49.386;8.370;2023-09-18T01:11:14;5.88;;;4.10;;
31990;SDS011;18508;49.386;8.370;2023-09-18T01:13:58;7.72;;;4.70;;
31990;SDS011;18508;49.386;8.370;2023-09-18T01:16:47;7.10;;;4.22;;
31990;SDS011;18508;49.386;8.370;2023-09-18T01:19:36;9.38;;;4.38;;
31990;SDS011;18508;49.386;8.370;2023-09-18T01:22:06;9.68;;;4.47;;
31990;SDS011;18508;49.386;8.370;2023-09-18T01:24:38;10.32;;;4.57;;
31990;SDS011;18508;49.386;8.370;2023-09-18T01:27:08;6.15;;;4.75;;
31990;SDS011;18508;49.386;8.370;2023-09-18T01:29:39;7.78;;;4.40;;
31990;SDS011;18508;49.386;8.370;2023-09-18T01:32:07;10.70;;;4.65;;
31990;SDS011;18508;49.386;8.370;2023-09-18T01:34:37;8.30;;;4.82;;
31990;SDS011;18508;49.386;8.370;2023-09-18T01:37:09;12.40;;;4.80;;
31990;SDS011;18508;49.386;8.370;2023-09-18T01:39:39;7.50;;;5.05;;
31990;SDS011;18508;49.386;8.370;2023-09-18T01:42:08;8.63;;;4.85;;
31990;SDS011;18508;49.386;8.370;2023-09-18T01:44:41;9.95;;;4.95;;
31990;SDS011;18508;49.386;8.370;2023-09-18T01:47:10;10.35;;;4.90;;
31990;SDS011;18508;49.386;8.370;2023-09-18T01:49:41;8.20;;;4.57;;
31990;SDS011;18508;49.386;8.370;2023-09-18T01:52:15;8.75;;;4.97;;
31990;SDS011;18508;49.386;8.370;2023-09-18T01:54:45;7.65;;;4.63;;
31990;SDS011;18508;49.386;8.370;2023-09-18T01:57:16;8.83;;;5.07;;
31990;SDS011;18508;49.386;8.370;2023-09-18T01:59:44;8.43;;;5.22;;
31990;SDS011;18508;49.386;8.370;2023-09-18T02:02:13;7.90;;;5.22;;
31990;SDS011;18508;49.386;8.370;2023-09-18T02:05:06;10.52;;;5.30;;
31990;SDS011;18508;49.386;8.370;2023-09-18T02:07:36;13.07;;;6.05;;
31990;SDS011;18508;49.386;8.370;2023-09-18T02:10:08;10.07;;;4.93;;
31990;SDS011;18508;49.386;8.370;2023-09-18T02:12:39;15.75;;;6.70;;
31990;SDS011;18508;49.386;8.370;2023-09-18T02:15:08;21.15;;;7.55;;
31990;SDS011;18508;49.386;8.370;2023-09-18T02:17:38;14.07;;;6.43;;
31990;SDS011;18508;49.386;8.370;2023-09-18T02:20:08;15.25;;;5.88;;
31990;SDS011;18508;49.386;8.370;2023-09-18T02:22:40;10.63;;;5.70;;
31990;SDS011;18508;49.386;8.370;2023-09-18T02:27:43;16.10;;;6.15;;
31990;SDS011;18508;49.386;8.370;2023-09-18T02:30:16;20.73;;;6.47;;
31990;SDS011;18508;49.386;8.370;2023-09-18T02:32:53;15.35;;;5.90;;
31990;SDS011;18508;49.386;8.370;2023-09-18T02:35:22;14.13;;;5.80;;
31990;SDS011;18508;49.386;8.370;2023-09-18T02:37:52;18.67;;;6.10;;
31990;SDS011;18508;49.386;8.370;2023-09-18T02:40:22;11.40;;;5.30;;
31990;SDS011;18508;49.386;8.370;2023-09-18T02:42:51;10.00;;;5.03;;
31990;SDS011;18508;49.386;8.370;2023-09-18T02:45:20;6.95;;;4.70;;
31990;SDS011;18508;49.386;8.370;2023-09-18T02:47:49;9.63;;;4.93;;
31990;SDS011;18508;49.386;8.370;2023-09-18T02:50:18;7.18;;;4.97;;
31990;SDS011;18508;49.386;8.370;2023-09-18T02:52:47;7.63;;;4.68;;
31990;SDS011;18508;49.386;8.370;2023-09-18T02:55:15;11.63;;;4.95;;
31990;SDS011;18508;49.386;8.370;2023-09-18T02:57:47;7.93;;;4.82;;
31990;SDS011;18508;49.386;8.370;2023-09-18T03:00:16;9.27;;;4.97;;
31990;SDS011;18508;49.386;8.370;2023-09-18T03:02:58;8.55;;;5.03;;
31990;SDS011;18508;49.386;8.370;2023-09-18T03:05:27;8.60;;;5.15;;
31990;SDS011;18508;49.386;8.370;2023-09-18T03:07:55;11.32;;;5.60;;
31990;SDS011;18508;49.386;8.370;2023-09-18T03:10:25;11.63;;;5.00;;
31990;SDS011;18508;49.386;8.370;2023-09-18T03:12:54;9.70;;;4.65;;
31990;SDS011;18508;49.386;8.370;2023-09-18T03:15:24;8.88;;;5.15;;
31990;SDS011;18508;49.386;8.370;2023-09-18T03:17:52;10.95;;;5.57;;
31990;SDS011;18508;49.386;8.370;2023-09-18T03:20:22;7.90;;;5.07;;
31990;SDS011;18508;49.386;8.370;2023-09-18T03:22:51;10.77;;;5.43;;
31990;SDS011;18508;49.386;8.370;2023-09-18T03:25:20;21.58;;;6.57;;
31990;SDS011;18508;49.386;8.370;2023-09-18T03:27:50;10.93;;;5.35;;
31990;SDS011;18508;49.386;8.370;2023-09-18T03:30:22;11.40;;;5.95;;
31990;SDS011;18508;49.386;8.370;2023-09-18T03:32:54;12.40;;;5.90;;
31990;SDS011;18508;49.386;8.370;2023-09-18T03:35:22;11.73;;;5.68;;
31990;SDS011;18508;49.386;8.370;2023-09-18T03:37:51;11.50;;;5.75;;
31990;SDS011;18508;49.386;8.370;2023-09-18T03:40:21;10.98;;;5.40;;
31990;SDS011;18508;49.386;8.370;2023-09-18T03:42:51;10.07;;;4.65;;
31990;SDS011;18508;49.386;8.370;2023-09-18T03:45:22;11.75;;;4.28;;
31990;SDS011;18508;49.386;8.370;2023-09-18T03:47:50;10.93;;;4.53;;
31990;SDS011;18508;49.386;8.370;2023-09-18T03:50:19;17.90;;;4.47;;
31990;SDS011;18508;49.386;8.370;2023-09-18T03:52:48;10.45;;;3.78;;
31990;SDS011;18508;49.386;8.370;2023-09-18T03:55:16;11.80;;;3.80;;
31990;SDS011;18508;49.386;8.370;2023-09-18T03:57:45;15.20;;;4.93;;
31990;SDS011;18508;49.386;8.370;2023-09-18T04:00:15;14.32;;;4.38;;
31990;SDS011;18508;49.386;8.370;2023-09-18T04:02:44;14.48;;;4.82;;
31990;SDS011;18508;49.386;8.370;2023-09-18T04:05:15;15.80;;;4.95;;
31990;SDS011;18508;49.386;8.370;2023-09-18T04:07:43;15.98;;;4.93;;
31990;SDS011;18508;49.386;8.370;2023-09-18T04:10:13;13.25;;;3.35;;
31990;SDS011;18508;49.386;8.370;2023-09-18T04:12:46;13.07;;;4.13;;
31990;SDS011;18508;49.386;8.370;2023-09-18T04:15:16;13.88;;;3.83;;
31990;SDS011;18508;49.386;8.370;2023-09-18T04:17:50;10.85;;;3.53;;
31990;SDS011;18508;49.386;8.370;2023-09-18T04:20:19;8.98;;;2.63;;
31990;SDS011;18508;49.386;8.370;2023-09-18T04:22:47;13.23;;;3.50;;
31990;SDS011;18508;49.386;8.370;2023-09-18T04:25:17;8.07;;;2.53;;
31990;SDS011;18508;49.386;8.370;2023-09-18T04:27:48;6.97;;;2.85;;
31990;SDS011;18508;49.386;8.370;2023-09-18T04:30:18;7.72;;;2.38;;
31990;SDS011;18508;49.386;8.370;2023-09-18T04:32:47;8.88;;;3.10;;
31990;SDS011;18508;49.386;8.370;2023-09-18T04:35:20;7.93;;;2.85;;
31990;SDS011;18508;49.386;8.370;2023-09-18T04:37:55;7.85;;;2.60;;
31990;SDS011;18508;49.386;8.370;2023-09-18T04:40:23;7.70;;;2.33;;
31990;SDS011;18508;49.386;8.370;2023-09-18T04:42:52;6.50;;;2.13;;
31990;SDS011;18508;49.386;8.370;2023-09-18T04:45:21;8.48;;;2.97;;
31990;SDS011;18508;49.386;8.370;2023-09-18T04:47:50;8.32;;;2.42;;
31990;SDS011;18508;49.386;8.370;2023-09-18T04:50:21;7.10;;;2.25;;
31990;SDS011;18508;49.386;8.370;2023-09-18T04:52:49;8.88;;;2.10;;
31990;SDS011;18508;49.386;8.370;2023-09-18T04:55:19;12.48;;;2.90;;
31990;SDS011;18508;49.386;8.370;2023-09-18T04:57:47;11.10;;;2.80;;
31990;SDS011;18508;49.386;8.370;2023-09-18T05:00:16;7.25;;;2.58;;
31990;SDS011;18508;49.386;8.370;2023-09-18T05:02:45;8.98;;;2.65;;
31990;SDS011;18508;49.386;8.370;2023-09-18T05:05:13;6.93;;;2.38;;
31990;SDS011;18508;49.386;8.370;2023-09-18T05:07:43;9.23;;;2.63;;
31990;SDS011;18508;49.386;8.370;2023-09-18T05:10:12;6.97;;;2.33;;
31990;SDS011;18508;49.386;8.370;2023-09-18T05:12:40;6.63;;;2.10;;
31990;SDS011;18508;49.386;8.370;2023-09-18T05:15:09;6.40;;;2.38;;
31990;SDS011;18508;49.386;8.370;2023-09-18T05:17:40;7.80;;;2.88;;
31990;SDS011;18508;49.386;8.370;2023-09-18T05:20:10;7.95;;;2.70;;
31990;SDS011;18508;49.386;8.370;2023-09-18T05:22:43;9.05;;;3.05;;
31990;SDS011;18508;49.386;8.370;2023-09-18T05:25:13;7.78;;;2.83;;
31990;SDS011;18508;49.386;8.370;2023-09-18T05:27:42;10.60;;;3.30;;
31990;SDS011;18508;49.386;8.370;2023-09-18T05:30:14;9.80;;;3.25;;
31990;SDS011;18508;49.386;8.370;2023-09-18T05:32:48;16.17;;;3.50;;
31990;SDS011;18508;49.386;8.370;2023-09-18T05:35:19;6.30;;;2.75;;
31990;SDS011;18508;49.386;8.370;2023-09-18T05:37:52;8.38;;;3.10;;
31990;SDS011;18508;49.386;8.370;2023-09-18T05:40:25;12.23;;;3.60;;
31990;SDS011;18508;49.386;8.370;2023-09-18T05:42:55;9.70;;;3.30;;
31990;SDS011;18508;49.386;8.370;2023-09-18T05:45:24;8.75;;;2.80;;
31990;SDS011;18508;49.386;8.370;2023-09-18T05:47:53;6.95;;;2.75;;
31990;SDS011;18508;49.386;8.370;2023-09-18T05:50:28;6.57;;;2.92;;
31990;SDS011;18508;49.386;8.370;2023-09-18T05:52:59;7.93;;;3.13;;
31990;SDS011;18508;49.386;8.370;2023-09-18T05:55:32;6.57;;;3.30;;
31990;SDS011;18508;49.386;8.370;2023-09-18T05:58:01;7.32;;;2.58;;
31990;SDS011;18508;49.386;8.370;2023-09-18T06:00:31;8.27;;;2.53;;
31990;SDS011;18508;49.386;8.370;2023-09-18T06:03:00;12.15;;;4.10;;
31990;SDS011;18508;49.386;8.370;2023-09-18T06:05:29;5.95;;;2.80;;
31990;SDS011;18508;49.386;8.370;2023-09-18T06:08:01;10.30;;;2.92;;
31990;SDS011;18508;49.386;8.370;2023-09-18T06:10:31;7.32;;;2.53;;
31990;SDS011;18508;49.386;8.370;2023-09-18T06:13:00;7.35;;;2.65;;
31990;SDS011;18508;49.386;8.370;2023-09-18T06:15:31;9.73;;;3.13;;
31990;SDS011;18508;49.386;8.370;2023-09-18T06:18:00;6.82;;;2.60;;
31990;SDS011;18508;49.386;8.370;2023-09-18T06:20:30;5.65;;;2.72;;
31990;SDS011;18508;49.386;8.370;2023-09-18T06:22:59;7.25;;;2.40;;
31990;SDS011;18508;49.386;8.370;2023-09-18T06:25:28;8.38;;;3.47;;
31990;SDS011;18508;49.386;8.370;2023-09-18T06:27:58;10.38;;;2.97;;
31990;SDS011;18508;49.386;8.370;2023-09-18T06:30:29;7.00;;;2.40;;
31990;SDS011;18508;49.386;8.370;2023-09-18T06:32:59;7.50;;;2.58;;
31990;SDS011;18508;49.386;8.370;2023-09-18T06:35:30;3.80;;;1.92;;
31990;SDS011;18508;49.386;8.370;2023-09-18T06:37:59;3.50;;;2.03;;
31990;SDS011;18508;49.386;8.370;2023-09-18T06:40:31;6.53;;;1.98;;
31990;SDS011;18508;49.386;8.370;2023-09-18T06:42:59;9.82;;;2.20;;
31990;SDS011;18508;49.386;8.370;2023-09-18T06:45:31;6.90;;;1.80;;
31990;SDS011;18508;49.386;8.370;2023-09-18T06:48:00;5.88;;;1.80;;
31990;SDS011;18508;49.386;8.370;2023-09-18T06:50:29;4.35;;;1.55;;
31990;SDS011;18508;49.386;8.370;2023-09-18T06:52:57;4.45;;;1.77;;
31990;SDS011;18508;49.386;8.370;2023-09-18T06:55:26;6.35;;;1.50;;
31990;SDS011;18508;49.386;8.370;2023-09-18T06:57:56;3.97;;;1.30;;
31990;SDS011;18508;49.386;8.370;2023-09-18T07:00:24;5.40;;;1.60;;
31990;SDS011;18508;49.386;8.370;2023-09-18T07:02:52;5.68;;;1.85;;
31990;SDS011;18508;49.386;8.370;2023-09-18T07:05:21;5.05;;;1.40;;
31990;SDS011;18508;49.386;8.370;2023-09-18T07:07:50;7.72;;;1.75;;
31990;SDS011;18508;49.386;8.370;2023-09-18T07:10:19;6.90;;;1.55;;
31990;SDS011;18508;49.386;8.370;2023-09-18T07:12:50;2.72;;;1.30;;
31990;SDS011;18508;49.386;8.370;2023-09-18T07:15:20;6.50;;;1.98;;
31990;SDS011;18508;49.386;8.370;2023-09-18T07:17:50;5.63;;;1.77;;
31990;SDS011;18508;49.386;8.370;2023-09-18T07:20:18;4.00;;;1.35;;
31990;SDS011;18508;49.386;8.370;2023-09-18T07:22:49;5.25;;;1.25;;
31990;SDS011;18508;49.386;8.370;2023-09-18T07:25:17;2.63;;;1.13;;
31990;SDS011;18508;49.386;8.370;2023-09-18T07:27:46;4.28;;;1.50;;
31990;SDS011;18508;49.386;8.370;2023-09-18T07:30:15;3.25;;;1.35;;
31990;SDS011;18508;49.386;8.370;2023-09-18T07:32:49;4.45;;;1.75;;
31990;SDS011;18508;49.386;8.370;2023-09-18T07:35:17;4.57;;;1.60;;
31990;SDS011;18508;49.386;8.370;2023-09-18T07:37:46;5.28;;;1.50;;
31990;SDS011;18508;49.386;8.370;2023-09-18T07:40:15;3.75;;;1.30;;
31990;SDS011;18508;49.386;8.370;2023-09-18T07:42:44;3.30;;;1.40;;
31990;SDS011;18508;49.386;8.370;2023-09-18T07:45:13;2.97;;;1.17;;
31990;SDS011;18508;49.386;8.370;2023-09-18T07:47:41;4.60;;;1.50;;
31990;SDS011;18508;49.386;8.370;2023-09-18T07:50:12;6.90;;;1.60;;
31990;SDS011;18508;49.386;8.370;2023-09-18T07:52:43;7.93;;;1.48;;
31990;SDS011;18508;49.386;8.370;2023-09-18T07:55:11;3.10;;;1.50;;
31990;SDS011;18508;49.386;8.370;2023-09-18T07:57:40;2.97;;;1.10;;
31990;SDS011;18508;49.386;8.370;2023-09-18T08:00:12;7.05;;;1.23;;
31990;SDS011;18508;49.386;8.370;2023-09-18T08:02:42;4.80;;;1.27;;
31990;SDS011;18508;49.386;8.370;2023-09-18T08:05:12;1.98;;;1.00;;
31990;SDS011;18508;49.386;8.370;2023-09-18T08:07:41;4.30;;;1.67;;
31990;SDS011;18508;49.386;8.370;2023-09-18T08:10:09;4.72;;;1.35;;
31990;SDS011;18508;49.386;8.370;2023-09-18T08:12:39;2.08;;;1.02;;
31990;SDS011;18508;49.386;8.370;2023-09-18T08:15:07;3.33;;;1.10;;
31990;SDS011;18508;49.386;8.370;2023-09-18T08:17:37;4.90;;;1.60;;
31990;SDS011;18508;49.386;8.370;2023-09-18T08:20:08;4.03;;;1.30;;
31990;SDS011;18508;49.386;8.370;2023-09-18T08:22:41;2.90;;;1.30;;
31990;SDS011;18508;49.386;8.370;2023-09-18T08:25:11;4.13;;;1.20;;
31990;SDS011;18508;49.386;8.370;2023-09-18T08:27:40;3.05;;;1.20;;
31990;SDS011;18508;49.386;8.370;2023-09-18T08:30:11;6.55;;;1.42;;
31990;SDS011;18508;49.386;8.370;2023-09-18T08:32:40;5.30;;;1.13;;
31990;SDS011;18508;49.386;8.370;2023-09-18T08:35:09;2.33;;;0.90;;
31990;SDS011;18508;49.386;8.370;2023-09-18T08:37:39;4.13;;;1.23;;
31990;SDS011;18508;49.386;8.370;2023-09-18T08:40:11;2.53;;;1.25;;
31990;SDS011;18508;49.386;8.370;2023-09-18T08:42:44;3.25;;;0.93;;
31990;SDS011;18508;49.386;8.370;2023-09-18T08:45:19;3.05;;;0.88;;
31990;SDS011;18508;49.386;8.370;2023-09-18T08:47:51;2.20;;;1.02;;
31990;SDS011;18508;49.386;8.370;2023-09-18T08:50:23;2.53;;;1.08;;
31990;SDS011;18508;49.386;8.370;2023-09-18T08:52:52;3.13;;;1.20;;
31990;SDS011;18508;49.386;8.370;2023-09-18T08:55:23;2.85;;;0.90;;
31990;SDS011;18508;49.386;8.370;2023-09-18T08:57:52;2.97;;;1.02;;
31990;SDS011;18508;49.386;8.370;2023-09-18T09:00:21;5.28;;;1.15;;
31990;SDS011;18508;49.386;8.370;2023-09-18T09:02:50;2.15;;;0.98;;
31990;SDS011;18508;49.386;8.370;2023-09-18T09:05:21;5.72;;;1.10;;
31990;SDS011;18508;49.386;8.370;2023-09-18T09:07:50;3.40;;;1.17;;
31990;SDS011;18508;49.386;8.370;2023-09-18T09:10:18;3.30;;;1.27;;
31990;SDS011;18508;49.386;8.370;2023-09-18T09:12:53;3.80;;;0.90;;
31990;SDS011;18508;49.386;8.370;2023-09-18T09:15:24;4.38;;;1.10;;
31990;SDS011;18508;49.386;8.370;2023-09-18T09:18:04;6.90;;;1.20;;
31990;SDS011;18508;49.386;8.370;2023-09-18T09:20:34;7.50;;;1.15;;
31990;SDS011;18508;49.386;8.370;2023-09-18T09:23:04;3.90;;;1.25;;
31990;SDS011;18508;49.386;8.370;2023-09-18T09:25:33;4.72;;;0.98;;
31990;SDS011;18508;49.386;8.370;2023-09-18T09:28:04;3.05;;;0.85;;
31990;SDS011;18508;49.386;8.370;2023-09-18T09:30:34;4.03;;;1.00;;
31990;SDS011;18508;49.386;8.370;2023-09-18T09:33:03;2.78;;;0.95;;
31990;SDS011;18508;49.386;8.370;2023-09-18T09:35:34;2.35;;;0.80;;
31990;SDS011;18508;49.386;8.370;2023-09-18T09:38:07;4.47;;;0.98;;
31990;SDS011;18508;49.386;8.370;2023-09-18T09:43:07;2.33;;;0.80;;
31990;SDS011;18508;49.386;8.370;2023-09-18T09:45:37;2.83;;;0.98;;
31990;SDS011;18508;49.386;8.370;2023-09-18T09:48:05;4.53;;;1.40;;
31990;SDS011;18508;49.386;8.370;2023-09-18T09:50:44;2.85;;;0.80;;
31990;SDS011;18508;49.386;8.370;2023-09-18T09:53:15;1.70;;;0.90;;
31990;SDS011;18508;49.386;8.370;2023-09-18T09:55:51;4.13;;;1.20;;
31990;SDS011;18508;49.386;8.370;2023-09-18T09:58:26;2.30;;;1.15;;
31990;SDS011;18508;49.386;8.370;2023-09-18T10:00:59;5.88;;;1.33;;
31990;SDS011;18508;49.386;8.370;2023-09-18T10:03:35;4.38;;;1.20;;
31990;SDS011;18508;49.386;8.370;2023-09-18T10:06:06;3.50;;;0.90;;
31990;SDS011;18508;49.386;8.370;2023-09-18T10:08:37;3.38;;;1.30;;
31990;SDS011;18508;49.386;8.370;2023-09-18T10:11:07;3.33;;;0.82;;
31990;SDS011;18508;49.386;8.370;2023-09-18T10:13:40;2.28;;;1.15;;
31990;SDS011;18508;49.386;8.370;2023-09-18T10:16:13;5.88;;;1.08;;
31990;SDS011;18508;49.386;8.370;2023-09-18T10:18:50;6.20;;;1.00;;
31990;SDS011;18508;49.386;8.370;2023-09-18T10:21:26;3.08;;;0.90;;
31990;SDS011;18508;49.386;8.370;2023-09-18T10:26:31;5.18;;;1.13;;
31990;SDS011;18508;49.386;8.370;2023-09-18T10:29:06;2.83;;;0.98;;
31990;SDS011;18508;49.386;8.370;2023-09-18T10:34:07;5.68;;;1.23;;
31990;SDS011;18508;49.386;8.370;2023-09-18T10:36:37;3.92;;;1.02;;
31990;SDS011;18508;49.386;8.370;2023-09-18T10:39:09;4.47;;;1.13;;
31990;SDS011;18508;49.386;8.370;2023-09-18T10:41:39;5.60;;;0.98;;
31990;SDS011;18508;49.386;8.370;2023-09-18T10:44:09;2.53;;;1.00;;
31990;SDS011;18508;49.386;8.370;2023-09-18T10:46:39;3.15;;;1.02;;
31990;SDS011;18508;49.386;8.370;2023-09-18T10:49:07;4.72;;;1.38;;
31990;SDS011;18508;49.386;8.370;2023-09-18T10:51:37;3.05;;;1.17;;
31990;SDS011;18508;49.386;8.370;2023-09-18T10:54:08;4.53;;;1.10;;
31990;SDS011;18508;49.386;8.370;2023-09-18T10:56:40;6.60;;;1.15;;
31990;SDS011;18508;49.386;8.370;2023-09-18T10:59:10;2.55;;;1.00;;
31990;SDS011;18508;49.386;8.370;2023-09-18T11:01:39;3.75;;;1.10;;
31990;SDS011;18508;49.386;8.370;2023-09-18T11:04:10;5.68;;;1.33;;
31990;SDS011;18508;49.386;8.370;2023-09-18T11:09:40;4.60;;;1.20;;
31990;SDS011;18508;49.386;8.370;2023-09-18T11:12:09;2.10;;;0.82;;
31990;SDS011;18508;49.386;8.370;2023-09-18T11:14:48;8.80;;;1.75;;
31990;SDS011;18508;49.386;8.370;2023-09-18T11:17:29;6.20;;;1.45;;
31990;SDS011;18508;49.386;8.370;2023-09-18T11:20:02;1.73;;;0.77;;
31990;SDS011;18508;49.386;8.370;2023-09-18T11:22:39;3.75;;;1.05;;
31990;SDS011;18508;49.386;8.370;2023-09-18T11:28:14;2.25;;;1.08;;
31990;SDS011;18508;49.386;8.370;2023-09-18T11:30:50;4.22;;;1.05;;
31990;SDS011;18508;49.386;8.370;2023-09-18T11:33:35;2.35;;;0.90;;
31990;SDS011;18508;49.386;8.370;2023-09-18T11:36:05;5.15;;;1.35;;
31990;SDS011;18508;49.386;8.370;2023-09-18T11:38:53;1.88;;;0.90;;
31990;SDS011;18508;49.386;8.370;2023-09-18T11:41:25;3.22;;;1.35;;
31990;SDS011;18508;49.386;8.370;2023-09-18T11:46:58;4.55;;;1.13;;
31990;SDS011;18508;49.386;8.370;2023-09-18T11:49:27;3.42;;;1.25;;
31990;SDS011;18508;49.386;8.370;2023-09-18T11:51:58;4.35;;;1.13;;
31990;SDS011;18508;49.386;8.370;2023-09-18T11:54:27;5.40;;;1.15;;
31990;SDS011;18508;49.386;8.370;2023-09-18T11:56:56;3.40;;;1.20;;
31990;SDS011;18508;49.386;8.370;2023-09-18T11:59:35;3.90;;;1.35;;
31990;SDS011;18508;49.386;8.370;2023-09-18T12:02:12;3.38;;;0.88;;
31990;SDS011;18508;49.386;8.370;2023-09-18T12:04:47;4.18;;;0.90;;
31990;SDS011;18508;49.386;8.370;2023-09-18T12:07:16;3.15;;;1.15;;
31990;SDS011;18508;49.386;8.370;2023-09-18T12:09:46;2.47;;;0.75;;
31990;SDS011;18508;49.386;8.370;2023-09-18T12:12:15;3.47;;;1.00;;
31990;SDS011;18508;49.386;8.370;2023-09-18T12:14:44;2.80;;;1.00;;
31990;SDS011;18508;49.386;8.370;2023-09-18T12:17:18;1.80;;;0.80;;
31990;SDS011;18508;49.386;8.370;2023-09-18T12:19:50;3.53;;;1.02;;
31990;SDS011;18508;49.386;8.370;2023-09-18T12:22:27;2.42;;;0.75;;
31990;SDS011;18508;49.386;8.370;2023-09-18T12:25:10;4.13;;;1.13;;
31990;SDS011;18508;49.386;8.370;2023-09-18T12:27:42;3.05;;;0.93;;
31990;SDS011;18508;49.386;8.370;2023-09-18T12:30:11;2.47;;;0.80;;
31990;SDS011;18508;49.386;8.370;2023-09-18T12:32:43;2.97;;;0.90;;
31990;SDS011;18508;49.386;8.370;2023-09-18T12:35:16;3.90;;;1.55;;
31990;SDS011;18508;49.386;8.370;2023-09-18T12:37:46;2.53;;;0.93;;
31990;SDS011;18508;49.386;8.370;2023-09-18T12:40:22;3.30;;;0.93;;
31990;SDS011;18508;49.386;8.370;2023-09-18T12:42:54;3.67;;;0.82;;
31990;SDS011;18508;49.386;8.370;2023-09-18T12:45:24;2.90;;;1.15;;
31990;SDS011;18508;49.386;8.370;2023-09-18T12:47:55;2.63;;;1.05;;
31990;SDS011;18508;49.386;8.370;2023-09-18T12:50:26;2.10;;;0.70;;
31990;SDS011;18508;49.386;8.370;2023-09-18T12:53:06;1.88;;;1.00;;
31990;SDS011;18508;49.386;8.370;2023-09-18T12:55:35;3.13;;;0.90;;
31990;SDS011;18508;49.386;8.370;2023-09-18T12:58:04;4.43;;;1.17;;
31990;SDS011;18508;49.386;8.370;2023-09-18T13:00:35;2.03;;;0.73;;
31990;SDS011;18508;49.386;8.370;2023-09-18T13:03:06;3.13;;;1.10;;
31990;SDS011;18508;49.386;8.370;2023-09-18T13:05:39;4.15;;;1.05;;
31990;SDS011;18508;49.386;8.370;2023-09-18T13:08:08;3.63;;;1.13;;
31990;SDS011;18508;49.386;8.370;2023-09-18T13:10:42;3.72;;;1.10;;
31990;SDS011;18508;49.386;8.370;2023-09-18T13:13:18;2.85;;;1.10;;
31990;SDS011;18508;49.386;8.370;2023-09-18T13:15:48;3.40;;;1.00;;
31990;SDS011;18508;49.386;8.370;2023-09-18T13:18:23;2.05;;;1.25;;
31990;SDS011;18508;49.386;8.370;2023-09-18T13:20:51;2.17;;;0.90;;
31990;SDS011;18508;49.386;8.370;2023-09-18T13:23:20;2.97;;;1.15;;
31990;SDS011;18508;49.386;8.370;2023-09-18T13:25:48;2.53;;;1.20;;
31990;SDS011;18508;49.386;8.370;2023-09-18T13:28:17;3.28;;;0.95;;
31990;SDS011;18508;49.386;8.370;2023-09-18T13:30:48;3.78;;;1.30;;
31990;SDS011;18508;49.386;8.370;2023-09-18T13:33:17;4.68;;;1.20;;
31990;SDS011;18508;49.386;8.370;2023-09-18T13:35:48;4.03;;;1.05;;
31990;SDS011;18508;49.386;8.370;2023-09-18T13:38:16;1.90;;;1.00;;
31990;SDS011;18508;49.386;8.370;2023-09-18T13:40:45;4.28;;;1.10;;
31990;SDS011;18508;49.386;8.370;2023-09-18T13:43:15;3.65;;;0.80;;
31990;SDS011;18508;49.386;8.370;2023-09-18T13:45:48;3.33;;;0.77;;
31990;SDS011;18508;49.386;8.370;2023-09-18T13:48:19;2.90;;;1.17;;
31990;SDS011;18508;49.386;8.370;2023-09-18T13:50:51;4.53;;;1.08;;
31990;SDS011;18508;49.386;8.370;2023-09-18T13:53:20;5.50;;;1.10;;
31990;SDS011;18508;49.386;8.370;2023-09-18T13:55:52;1.75;;;0.80;;
31990;SDS011;18508;49.386;8.370;2023-09-18T13:58:22;3.42;;;1.00;;
31990;SDS011;18508;49.386;8.370;2023-09-18T14:00:51;3.95;;;0.90;;
31990;SDS011;18508;49.386;8.370;2023-09-18T14:03:20;2.38;;;1.05;;
31990;SDS011;18508;49.386;8.370;2023-09-18T14:05:51;5.28;;;0.90;;
31990;SDS011;18508;49.386;8.370;2023-09-18T14:08:20;4.13;;;0.90;;
31990;SDS011;18508;49.386;8.370;2023-09-18T14:10:48;2.00;;;0.80;;
31990;SDS011;18508;49.386;8.370;2023-09-18T14:13:18;2.28;;;0.80;;
31990;SDS011;18508;49.386;8.370;2023-09-18T14:15:47;2.50;;;1.10;;
31990;SDS011;18508;49.386;8.370;2023-09-18T14:18:17;3.13;;;0.90;;
31990;SDS011;18508;49.386;8.370;2023-09-18T14:20:46;2.80;;;0.98;;
31990;SDS011;18508;49.386;8.370;2023-09-18T14:23:16;2.78;;;0.80;;
31990;SDS011;18508;49.386;8.370;2023-09-18T14:25:45;2.55;;;0.90;;
31990;SDS011;18508;49.386;8.370;2023-09-18T14:28:13;2.55;;;1.17;;
31990;SDS011;18508;49.386;8.370;2023-09-18T14:30:42;2.92;;;0.88;;
31990;SDS011;18508;49.386;8.370;2023-09-18T14:33:12;1.98;;;0.75;;
31990;SDS011;18508;49.386;8.370;2023-09-18T14:35:41;4.28;;;1.20;;
31990;SDS011;18508;49.386;8.370;2023-09-18T14:38:09;2.47;;;0.80;;
31990;SDS011;18508;49.386;8.370;2023-09-18T14:40:42;3.85;;;1.10;;
31990;SDS011;18508;49.386;8.370;2023-09-18T14:43:10;1.42;;;0.80;;
31990;SDS011;18508;49.386;8.370;2023-09-18T14:45:39;2.45;;;1.05;;
31990;SDS011;18508;49.386;8.370;2023-09-18T14:48:07;2.45;;;1.00;;
31990;SDS011;18508;49.386;8.370;2023-09-18T14:50:36;2.25;;;0.90;;
31990;SDS011;18508;49.386;8.370;2023-09-18T14:53:05;3.22;;;1.05;;
31990;SDS011;18508;49.386;8.370;2023-09-18T14:55:35;2.47;;;1.30;;
31990;SDS011;18508;49.386;8.370;2023-09-18T14:58:04;2.00;;;1.10;;
31990;SDS011;18508;49.386;8.370;2023-09-18T15:00:33;3.53;;;1.10;;
31990;SDS011;18508;49.386;8.370;2023-09-18T15:03:03;3.92;;;0.90;;
31990;SDS011;18508;49.386;8.370;2023-09-18T15:05:31;2.88;;;1.02;;
31990;SDS011;18508;49.386;8.370;2023-09-18T15:08:00;3.72;;;1.10;;
31990;SDS011;18508;49.386;8.370;2023-09-18T15:10:29;2.97;;;1.08;;
31990;SDS011;18508;49.386;8.370;2023-09-18T15:12:57;3.92;;;1.05;;
31990;SDS011;18508;49.386;8.370;2023-09-18T15:15:27;3.83;;;0.88;;
31990;SDS011;18508;49.386;8.370;2023-09-18T15:17:57;5.10;;;1.33;;
31990;SDS011;18508;49.386;8.370;2023-09-18T15:20:26;4.57;;;0.80;;
31990;SDS011;18508;49.386;8.370;2023-09-18T15:22:55;3.42;;;0.88;;
31990;SDS011;18508;49.386;8.370;2023-09-18T15:25:24;3.38;;;1.67;;